Time;durP1;ratioP1;P1;durP2;ratioP2;P2;SDS_P1;SDS_P2;PMS_P1;PMS_P2;Temp;Humidity;BMP_temperature;BMP_pressure;BME280_temperature;BME280_humidity;BME280_pressure;Samples;Min_cycle;Max_cycle;Signal;HPM_P1;HPM_P2
2021/07/23 00:00:13;;;;;;;4.90;1.80;;;;;;;19.57;100.00;99560.63;1734603;81;21141;-62
2021/07/23 00:02:41;;;;;;;8.73;2.07;;;;;;;19.77;100.00;99549.34;1736925;81;20888;-58
2021/07/23 00:05:10;;;;;;;3.83;1.60;;;;;;;19.56;100.00;99549.26;1741217;81;21055;-61
2021/07/23 00:07:36;;;;;;;3.63;1.80;;;;;;;19.45;100.00;99547.62;1743965;81;21016;-62
2021/07/23 00:10:04;;;;;;;3.27;1.63;;;;;;;19.39;100.00;99562.66;1736374;81;21074;-61
2021/07/23 00:12:32;;;;;;;3.67;1.60;;;;;;;19.37;100.00;99554.73;1731010;81;20924;-62
2021/07/23 00:14:58;;;;;;;5.47;1.80;;;;;;;19.29;100.00;99558.67;1735392;81;21022;-61
2021/07/23 00:17:26;;;;;;;4.37;2.27;;;;;;;19.22;100.00;99552.02;1720664;81;20943;-61
2021/07/23 00:19:53;;;;;;;5.93;1.90;;;;;;;19.17;100.00;99552.80;1729016;81;21050;-63
2021/07/23 00:22:19;;;;;;;4.90;2.00;;;;;;;19.40;100.00;99562.95;1733354;81;20960;-62
2021/07/23 00:24:46;;;;;;;5.17;1.60;;;;;;;19.20;100.00;99560.98;1729803;81;21110;-58
2021/07/23 00:27:15;;;;;;;4.33;2.00;;;;;;;19.53;100.00;99560.34;1734096;81;20969;-59
2021/07/23 00:29:42;;;;;;;5.73;1.90;;;;;;;19.01;100.00;99572.23;1731395;81;21070;-62
2021/07/23 00:32:09;;;;;;;5.67;2.50;;;;;;;18.89;100.00;99571.90;1736905;81;21521;-62
2021/07/23 00:34:36;;;;;;;3.50;2.23;;;;;;;18.84;100.00;99578.48;1740547;81;21021;-62
2021/07/23 00:37:03;;;;;;;4.23;2.03;;;;;;;18.78;100.00;99566.28;1729554;81;21821;-58
2021/07/23 00:39:32;;;;;;;4.43;2.03;;;;;;;18.74;100.00;99579.72;1742649;81;20994;-61
2021/07/23 00:41:58;;;;;;;3.27;1.63;;;;;;;18.69;100.00;99585.73;1730499;81;21093;-62
2021/07/23 00:44:25;;;;;;;4.73;3.07;;;;;;;18.68;100.00;99575.44;1723479;81;21070;-62
2021/07/23 00:46:55;;;;;;;3.97;1.87;;;;;;;18.63;100.00;99584.09;1732079;81;21031;-63
2021/07/23 00:49:23;;;;;;;4.77;1.70;;;;;;;18.58;100.00;99584.06;1733924;81;21097;-63
2021/07/23 00:51:51;;;;;;;4.43;1.73;;;;;;;18.53;100.00;99593.27;1728789;81;21117;-63
2021/07/23 00:54:19;;;;;;;5.10;2.43;;;;;;;18.52;100.00;99588.22;1735524;81;21054;-63
2021/07/23 00:56:46;;;;;;;3.57;1.47;;;;;;;18.44;100.00;99590.27;1691549;82;20939;-63
2021/07/23 00:59:12;;;;;;;4.60;1.77;;;;;;;18.33;100.00;99589.91;1703902;82;21086;-62
2021/07/23 01:01:39;;;;;;;5.80;2.10;;;;;;;18.43;100.00;99587.89;1691757;82;21562;-60
2021/07/23 01:04:05;;;;;;;4.03;1.70;;;;;;;18.91;100.00;99583.02;1710293;81;20892;-62
2021/07/23 01:06:35;;;;;;;4.13;2.00;;;;;;;18.46;100.00;99588.19;1755833;81;21045;-63
2021/07/23 01:09:03;;;;;;;3.50;1.60;;;;;;;18.37;100.00;99593.66;1743840;80;20960;-58
2021/07/23 01:11:31;;;;;;;2.77;1.67;;;;;;;18.34;100.00;99596.00;1752615;81;21001;-63
2021/07/23 01:14:17;;;;;;;4.13;2.00;;;;;;;18.29;100.00;99595.94;1754824;81;21469;-62
2021/07/23 01:16:44;;;;;;;5.03;2.13;;;;;;;18.59;100.00;99603.33;1741401;79;20982;-62
2021/07/23 01:19:11;;;;;;;4.97;1.80;;;;;;;18.51;100.00;99602.47;1733340;81;21037;-59
2021/07/23 01:21:40;;;;;;;5.07;2.27;;;;;;;18.54;100.00;99611.22;1738978;81;21105;-63
2021/07/23 01:24:12;;;;;;;4.77;1.97;;;;;;;18.53;100.00;99613.06;1671754;82;21047;-63
2021/07/23 01:26:51;;;;;;;5.33;2.10;;;;;;;18.23;100.00;99613.57;1739860;81;21140;-63
2021/07/23 01:29:19;;;;;;;;;;;;;;;18.14;100.00;99625.59;1706434;81;21016;-64
2021/07/23 01:31:46;;;;;;;4.50;1.90;;;;;;;18.09;100.00;99625.02;1740646;80;20209;-63
2021/07/23 01:34:13;;;;;;;5.17;1.97;;;;;;;18.07;100.00;99633.72;1737384;81;21073;-63
2021/07/23 01:36:40;;;;;;;4.93;1.97;;;;;;;18.02;100.00;99640.77;1741729;81;20940;-63
2021/07/23 01:39:07;;;;;;;7.33;1.70;;;;;;;17.78;100.00;99644.19;1750474;79;21123;-59
2021/07/23 01:41:35;;;;;;;2.57;1.60;;;;;;;18.10;100.00;99641.12;1740951;81;20947;-59
2021/07/23 01:44:02;;;;;;;4.50;2.20;;;;;;;17.65;100.00;99649.25;1742603;81;21028;-63
2021/07/23 01:46:29;;;;;;;6.47;1.70;;;;;;;17.54;100.00;99650.16;1736664;81;21073;-63
2021/07/23 01:49:06;;;;;;;3.43;1.70;;;;;;;17.51;100.00;99646.19;1740629;81;20959;-59
2021/07/23 01:51:35;;;;;;;5.77;1.97;;;;;;;17.59;100.00;99652.36;1733386;81;21184;-64
2021/07/23 01:54:02;;;;;;;4.27;2.40;;;;;;;17.43;100.00;99649.25;1741194;81;20946;-63
2021/07/23 01:56:31;;;;;;;6.07;2.30;;;;;;;17.36;100.00;99649.94;1736300;81;21089;-63
2021/07/23 01:58:59;;;;;;;3.23;1.70;;;;;;;17.29;100.00;99655.89;1741559;81;21081;-64
2021/07/23 02:01:28;;;;;;;3.60;2.00;;;;;;;17.33;100.00;99651.73;1730128;81;21082;-64
2021/07/23 02:03:56;;;;;;;5.27;2.07;;;;;;;17.18;100.00;99654.41;1729932;81;22255;-63
2021/07/23 02:06:23;;;;;;;7.30;2.07;;;;;;;17.34;100.00;99655.95;1728307;81;21050;-63
2021/07/23 02:08:49;;;;;;;3.97;2.43;;;;;;;17.62;100.00;99655.83;1732340;81;20917;-63
2021/07/23 02:11:16;;;;;;;3.97;1.80;;;;;;;17.34;100.00;99653.31;1731949;80;20940;-62
2021/07/23 02:13:44;;;;;;;6.33;1.80;;;;;;;17.54;100.00;99657.56;1721483;80;21984;-63
2021/07/23 02:16:11;;;;;;;4.03;1.80;;;;;;;17.88;100.00;99654.84;1733640;81;21143;-62
2021/07/23 02:18:37;;;;;;;5.17;1.90;;;;;;;18.01;100.00;99657.11;1725235;81;21094;-63
2021/07/23 02:21:09;;;;;;;3.27;1.80;;;;;;;18.26;100.00;99651.83;1724024;81;20975;-63
2021/07/23 02:23:35;;;;;;;4.47;1.97;;;;;;;18.93;100.00;99650.10;1733147;81;22185;-64
2021/07/23 02:26:03;;;;;;;4.33;1.53;;;;;;;18.96;100.00;99646.96;1734661;80;21117;-63
2021/07/23 02:28:32;;;;;;;7.00;1.80;;;;;;;19.44;100.00;99643.84;1729956;81;22110;-63
2021/07/23 02:30:59;;;;;;;3.27;1.77;;;;;;;19.43;100.00;99653.62;1720191;80;21509;-64
2021/07/23 02:33:27;;;;;;;3.57;2.00;;;;;;;19.65;100.00;99652.69;1702035;82;21526;-60
2021/07/23 02:35:55;;;;;;;3.40;1.50;;;;;;;20.30;100.00;99651.84;1718221;80;20997;-65
2021/07/23 02:38:22;;;;;;;3.17;2.00;;;;;;;20.46;100.00;99650.84;1718880;80;21082;-64
2021/07/23 02:40:51;;;;;;;3.33;1.47;;;;;;;20.67;100.00;99650.87;1724466;81;21120;-60
2021/07/23 02:43:18;;;;;;;4.50;1.90;;;;;;;20.49;100.00;99651.64;1726864;81;21093;-62
2021/07/23 02:45:46;;;;;;;2.57;1.33;;;;;;;20.42;100.00;99660.36;1745788;80;21469;-59
2021/07/23 02:48:14;;;;;;;4.27;1.80;;;;;;;20.43;100.00;99656.66;1733896;80;21352;-64
2021/07/23 02:50:44;;;;;;;5.53;1.80;;;;;;;20.10;100.00;99654.72;1704808;83;21529;-64
2021/07/23 02:53:12;;;;;;;2.97;1.50;;;;;;;19.89;100.00;99658.36;1717535;80;21276;-64
2021/07/23 02:55:40;;;;;;;5.53;1.97;;;;;;;19.99;100.00;99661.03;1734450;81;21039;-64
2021/07/23 02:58:07;;;;;;;4.67;1.60;;;;;;;20.07;100.00;99656.55;1731591;81;20994;-63
2021/07/23 03:00:34;;;;;;;3.20;1.93;;;;;;;20.37;100.00;99662.45;1719971;81;21135;-59
2021/07/23 03:03:04;;;;;;;5.17;1.90;;;;;;;20.60;100.00;99661.19;1646306;86;21017;-64
2021/07/23 03:05:31;;;;;;;4.30;1.67;;;;;;;20.89;100.00;99659.36;1650033;86;21147;-58
2021/07/23 03:08:00;;;;;;;2.67;1.43;;;;;;;21.49;100.00;99663.02;1647752;86;21219;-64
2021/07/23 03:10:28;;;;;;;5.23;1.70;;;;;;;22.17;100.00;99661.18;1640427;86;21564;-65
2021/07/23 03:12:55;;;;;;;2.27;1.43;;;;;;;23.03;100.00;99663.78;1652812;86;21481;-66
2021/07/23 03:15:23;;;;;;;4.77;1.90;;;;;;;23.72;97.84;99664.96;1640468;86;21084;-64
2021/07/23 03:17:51;;;;;;;5.47;2.13;;;;;;;24.39;88.14;99660.34;1624513;86;21140;-65
2021/07/23 03:20:19;;;;;;;5.57;1.90;;;;;;;25.31;73.76;99666.88;1647022;85;21133;-65
2021/07/23 03:22:46;;;;;;;3.93;1.90;;;;;;;25.58;71.00;99671.98;1619940;87;21041;-65
2021/07/23 03:25:20;;;;;;;2.97;1.70;;;;;;;26.32;64.31;99665.88;1645664;86;21620;-62
2021/07/23 03:28:04;;;;;;;4.28;2.00;;;;;;;27.10;55.34;99666.44;1650206;86;21374;-58
2021/07/23 03:30:35;;;;;;;3.58;2.25;;;;;;;27.54;52.31;99667.45;1629616;86;21744;-63
2021/07/23 03:33:02;;;;;;;4.27;2.03;;;;;;;27.85;49.93;99663.93;1635315;86;21106;-63
2021/07/23 03:35:29;;;;;;;4.50;2.20;;;;;;;28.29;48.35;99662.84;1644524;86;21128;-59
2021/07/23 03:37:57;;;;;;;4.37;2.17;;;;;;;28.62;45.24;99659.71;1649538;86;21042;-63
2021/07/23 03:40:26;;;;;;;4.65;2.37;;;;;;;28.74;43.70;99660.40;1633431;85;21014;-64
2021/07/23 03:42:53;;;;;;;3.95;1.98;;;;;;;28.96;42.93;99657.51;1651016;86;22108;-64
2021/07/23 03:45:21;;;;;;;5.70;2.10;;;;;;;29.04;41.35;99654.59;1649619;86;21046;-64
2021/07/23 03:47:52;;;;;;;4.80;2.40;;;;;;;29.07;41.61;99657.98;1638285;86;21047;-62
2021/07/23 03:50:19;;;;;;;6.40;2.50;;;;;;;29.07;41.03;99662.00;1647894;85;21390;-60
2021/07/23 03:52:48;;;;;;;4.60;2.50;;;;;;;29.18;40.57;99665.91;1649487;85;21115;-63
2021/07/23 03:55:33;;;;;;;11.05;2.45;;;;;;;29.32;39.94;99663.81;1639526;86;21117;-61
2021/07/23 03:58:00;;;;;;;4.65;2.37;;;;;;;29.42;39.95;99662.64;1620949;86;21715;-60
2021/07/23 04:00:26;;;;;;;5.28;2.20;;;;;;;30.09;38.77;99663.70;1647693;86;21033;-61
2021/07/23 04:02:54;;;;;;;4.42;2.08;;;;;;;30.22;38.41;99664.57;1655740;86;21108;-61
2021/07/23 04:05:22;;;;;;;4.42;2.15;;;;;;;30.62;37.02;99665.42;1651935;84;21487;-60
2021/07/23 04:07:49;;;;;;;3.72;2.20;;;;;;;30.74;36.69;99668.17;1661631;86;21118;-61
2021/07/23 04:10:16;;;;;;;3.17;1.98;;;;;;;31.12;36.49;99671.95;1660010;85;21024;-62
2021/07/23 04:12:43;;;;;;;3.00;1.60;;;;;;;31.56;35.91;99670.88;1662266;86;21060;-62
2021/07/23 04:15:10;;;;;;;3.40;1.67;;;;;;;31.90;34.86;99663.45;1661988;84;21042;-63
2021/07/23 04:17:40;;;;;;;5.97;1.50;;;;;;;32.11;34.45;99673.50;1635920;86;21010;-65
2021/07/23 04:20:09;;;;;;;2.92;2.00;;;;;;;32.04;33.60;99669.24;1634682;87;21070;-63
2021/07/23 04:22:35;;;;;;;3.83;1.82;;;;;;;32.00;34.01;99671.05;1662841;86;21076;-62
2021/07/23 04:25:06;;;;;;;4.20;1.85;;;;;;;32.31;33.02;99665.56;1630359;86;21073;-62
2021/07/23 04:27:34;;;;;;;3.65;1.82;;;;;;;32.81;32.06;99666.95;1661490;86;20997;-62
2021/07/23 04:30:04;;;;;;;4.08;2.17;;;;;;;32.76;32.29;99661.78;1629672;86;22222;-62
2021/07/23 04:32:32;;;;;;;2.95;1.45;;;;;;;32.96;31.98;99662.16;1660957;86;21199;-60
2021/07/23 04:35:00;;;;;;;5.87;1.87;;;;;;;33.42;32.02;99663.83;1662860;84;20907;-63
2021/07/23 04:37:28;;;;;;;3.65;1.67;;;;;;;33.90;31.12;99659.11;1650208;85;20987;-60
2021/07/23 04:39:57;;;;;;;5.30;1.70;;;;;;;34.33;30.81;99660.02;1661025;86;21431;-58
2021/07/23 04:42:24;;;;;;;7.42;1.80;;;;;;;34.77;29.49;99668.58;1658648;86;21346;-59
2021/07/23 04:44:50;;;;;;;5.00;2.00;;;;;;;34.51;29.23;99668.48;1663246;86;21088;-59
2021/07/23 04:47:17;;;;;;;4.42;1.52;;;;;;;34.41;29.25;99667.13;1665682;85;21736;-59
2021/07/23 04:49:44;;;;;;;2.42;1.60;;;;;;;34.08;30.12;99663.00;1662613;86;21561;-59
2021/07/23 04:52:12;;;;;;;4.55;1.62;;;;;;;34.09;30.36;99668.61;1630767;86;21479;-60
2021/07/23 04:54:59;;;;;;;5.17;2.02;;;;;;;34.49;30.35;99674.81;1667750;84;20983;-61
2021/07/23 04:57:45;;;;;;;5.42;1.72;;;;;;;35.13;29.94;99665.73;1646441;85;21374;-60
2021/07/23 05:00:13;;;;;;;3.45;1.50;;;;;;;35.44;28.83;99664.66;1649247;86;21056;-61
2021/07/23 05:02:44;;;;;;;4.08;1.90;;;;;;;35.61;28.27;99666.08;1642293;86;21037;-61
2021/07/23 05:05:12;;;;;;;3.50;1.80;;;;;;;35.69;28.24;99667.19;1639761;85;21075;-60
2021/07/23 05:07:40;;;;;;;5.58;1.77;;;;;;;36.00;28.19;99672.06;1639655;87;21849;-60
2021/07/23 05:10:09;;;;;;;5.85;1.75;;;;;;;36.02;27.18;99667.81;1640191;85;22481;-60
2021/07/23 05:12:37;;;;;;;;;;;;;;;36.12;27.76;99669.69;1648750;87;21011;-60
2021/07/23 05:15:05;;;;;;;4.95;1.70;;;;;;;36.29;26.93;99671.25;1646757;85;20130;-60
2021/07/23 05:17:31;;;;;;;7.22;2.12;;;;;;;36.15;26.87;99677.88;1625639;87;21679;-60
2021/07/23 05:19:58;;;;;;;5.75;1.82;;;;;;;36.08;26.75;99678.36;1635837;87;22016;-60
2021/07/23 05:22:25;;;;;;;4.67;1.75;;;;;;;35.61;27.01;99678.27;1664127;85;21535;-60
2021/07/23 05:24:51;;;;;;;4.47;2.08;;;;;;;35.26;27.66;99676.57;1663320;86;20985;-60
2021/07/23 05:27:19;;;;;;;4.53;1.80;;;;;;;35.38;28.07;99675.01;1638366;86;21062;-59
2021/07/23 05:29:45;;;;;;;4.50;1.72;;;;;;;35.64;27.93;99677.55;1637233;87;20954;-60
2021/07/23 05:32:12;;;;;;;3.45;1.72;;;;;;;35.90;27.74;99677.52;1663637;84;21464;-60
2021/07/23 05:34:40;;;;;;;5.33;1.80;;;;;;;35.87;27.36;99676.89;1631659;87;21047;-59
2021/07/23 05:37:07;;;;;;;3.22;1.60;;;;;;;36.14;27.01;99672.25;1669696;85;21019;-59
2021/07/23 05:39:33;;;;;;;4.10;1.65;;;;;;;36.20;27.28;99680.83;1662465;86;20969;-59
2021/07/23 05:42:04;;;;;;;2.98;2.00;;;;;;;36.52;26.70;99678.48;1662040;86;21145;-60
2021/07/23 05:44:31;;;;;;;4.22;1.98;;;;;;;36.93;26.13;99677.91;1661893;85;21937;-58
2021/07/23 05:47:04;;;;;;;4.25;1.87;;;;;;;36.95;25.60;99682.43;1662957;85;21116;-58
2021/07/23 05:49:28;;;;;;;4.22;1.90;;;;;;;36.56;26.13;99674.45;1657471;84;21093;-59
2021/07/23 05:51:54;;;;;;;3.27;2.05;;;;;;;36.68;27.08;99684.48;1630600;86;21089;-60
2021/07/23 05:54:21;;;;;;;2.62;1.62;;;;;;;36.95;26.50;99677.00;1635933;86;21336;-60
2021/07/23 05:56:48;;;;;;;5.30;1.80;;;;;;;37.44;25.95;99673.70;1633428;86;21065;-60
2021/07/23 05:59:14;;;;;;;3.08;1.98;;;;;;;37.57;25.62;99674.16;1636357;86;21116;-60
2021/07/23 06:01:41;;;;;;;4.55;2.10;;;;;;;37.64;25.19;99670.90;1660899;84;21780;-59
2021/07/23 06:04:08;;;;;;;3.92;1.60;;;;;;;37.66;25.09;99677.34;1647994;86;21609;-59
2021/07/23 06:06:35;;;;;;;3.67;2.00;;;;;;;37.70;25.49;99670.75;1653486;86;21529;-60
2021/07/23 06:09:02;;;;;;;3.05;1.90;;;;;;;37.85;25.07;99674.91;1652477;85;21035;-60
2021/07/23 06:11:30;;;;;;;3.22;1.85;;;;;;;38.02;25.25;99674.80;1653399;86;21156;-60
2021/07/23 06:13:58;;;;;;;3.35;1.95;;;;;;;38.14;25.49;99679.31;1651476;85;21072;-60
2021/07/23 06:16:24;;;;;;;5.47;1.98;;;;;;;38.55;24.77;99679.06;1652460;85;21024;-61
2021/07/23 06:18:51;;;;;;;4.65;2.02;;;;;;;38.91;24.28;99683.23;1652732;86;21079;-61
2021/07/23 06:21:19;;;;;;;4.05;2.12;;;;;;;38.91;23.80;99687.33;1652657;86;21606;-60
2021/07/23 06:23:45;;;;;;;4.70;2.10;;;;;;;38.61;24.41;99684.34;1652720;86;21108;-59
2021/07/23 06:26:12;;;;;;;2.77;1.90;;;;;;;38.75;24.32;99686.29;1651708;85;21001;-60
2021/07/23 06:28:38;;;;;;;3.90;1.80;;;;;;;39.26;24.20;99683.06;1644170;85;21524;-61
2021/07/23 06:31:05;;;;;;;2.27;1.72;;;;;;;39.29;23.90;99686.38;1651722;86;21083;-61
2021/07/23 06:33:31;;;;;;;2.98;1.90;;;;;;;38.85;24.10;99683.42;1653069;86;21037;-62
2021/07/23 06:36:00;;;;;;;2.52;1.80;;;;;;;38.77;24.11;99682.61;1653247;85;22283;-61
2021/07/23 06:38:26;;;;;;;5.28;1.98;;;;;;;38.94;24.24;99684.58;1608786;86;21167;-61
2021/07/23 06:40:53;;;;;;;4.53;2.00;;;;;;;39.18;24.30;99683.63;1648462;85;21106;-62
2021/07/23 06:43:22;;;;;;;2.90;2.12;;;;;;;39.27;24.28;99684.02;1651383;86;20978;-62
2021/07/23 06:45:54;;;;;;;3.62;2.35;;;;;;;39.14;24.03;99678.76;1648063;86;21400;-61
2021/07/23 06:48:21;;;;;;;3.05;2.22;;;;;;;39.16;23.92;99684.58;1634403;86;21093;-61
2021/07/23 06:50:52;;;;;;;5.03;2.37;;;;;;;39.30;24.32;99679.16;1642852;85;22333;-63
2021/07/23 06:53:17;;;;;;;5.67;2.55;;;;;;;39.44;23.84;99683.02;1644585;86;21068;-63
2021/07/23 06:55:44;;;;;;;3.40;2.08;;;;;;;39.42;23.70;99682.05;1643403;86;21050;-63
2021/07/23 06:58:11;;;;;;;3.65;1.90;;;;;;;39.40;24.09;99677.00;1647936;85;21509;-61
2021/07/23 07:00:38;;;;;;;21.27;3.65;;;;;;;39.59;23.61;99676.35;1645692;86;21634;-62
2021/07/23 07:03:08;;;;;;;2.75;1.80;;;;;;;39.58;23.35;99674.80;1652478;85;21068;-61
2021/07/23 07:05:35;;;;;;;3.37;2.22;;;;;;;39.65;22.99;99681.02;1650426;85;21059;-65
2021/07/23 07:08:02;;;;;;;5.95;2.37;;;;;;;39.40;23.27;99682.45;1650786;85;20970;-60
2021/07/23 07:10:29;;;;;;;5.47;2.60;;;;;;;39.71;23.25;99685.53;1652726;86;21049;-59
2021/07/23 07:12:58;;;;;;;4.95;1.92;;;;;;;39.74;23.10;99686.11;1651977;86;20930;-62
2021/07/23 07:15:26;;;;;;;6.75;1.70;;;;;;;39.73;22.78;99686.48;1641801;86;21880;-62
2021/07/23 07:18:00;;;;;;;5.08;2.10;;;;;;;39.68;22.45;99679.49;1649572;85;21018;-61
2021/07/23 07:20:29;;;;;;;2.45;1.75;;;;;;;39.60;22.86;99684.75;1642243;86;21096;-62
2021/07/23 07:22:55;;;;;;;3.92;1.80;;;;;;;39.00;23.18;99689.66;1652596;85;21077;-62
2021/07/23 07:25:23;;;;;;;3.65;2.00;;;;;;;38.30;24.39;99699.42;1652073;85;22312;-63
2021/07/23 07:27:50;;;;;;;3.92;1.80;;;;;;;37.95;24.48;99692.65;1643349;86;21182;-62
2021/07/23 07:30:16;;;;;;;3.00;1.98;;;;;;;38.03;23.97;99695.41;1630337;86;21096;-61
2021/07/23 07:32:43;;;;;;;6.40;1.95;;;;;;;37.72;24.54;99696.97;1632677;85;21789;-59
2021/07/23 07:35:11;;;;;;;4.83;2.12;;;;;;;37.39;24.45;99698.48;1631933;86;21136;-61
2021/07/23 07:37:37;;;;;;;3.33;2.00;;;;;;;36.81;25.01;99697.20;1650141;86;22438;-62
2021/07/23 07:40:06;;;;;;;6.37;2.27;;;;;;;36.47;25.49;99693.17;1646886;86;21458;-61
2021/07/23 07:42:33;;;;;;;3.92;2.40;;;;;;;36.38;26.49;99696.74;1641570;85;21161;-62
2021/07/23 07:44:59;;;;;;;4.62;2.50;;;;;;;36.83;26.79;99699.56;1646225;86;21363;-61
2021/07/23 07:47:26;;;;;;;4.40;2.02;;;;;;;36.99;25.80;99699.54;1641130;86;21135;-61
2021/07/23 07:49:53;;;;;;;2.85;2.00;;;;;;;37.21;25.51;99702.44;1633214;86;21174;-63
2021/07/23 07:52:19;;;;;;;3.58;1.77;;;;;;;37.54;24.89;99698.02;1637217;86;20964;-60
2021/07/23 07:54:46;;;;;;;3.05;1.87;;;;;;;37.84;24.18;99695.87;1633869;85;20981;-63
2021/07/23 07:57:13;;;;;;;2.80;1.70;;;;;;;38.00;24.07;99701.05;1635954;86;20933;-63
2021/07/23 07:59:39;;;;;;;4.65;1.90;;;;;;;37.72;24.27;99694.84;1639423;86;21021;-63
2021/07/23 08:02:10;;;;;;;4.67;1.72;;;;;;;37.43;25.25;99706.11;1633295;86;21170;-61
2021/07/23 08:04:39;;;;;;;5.78;1.67;;;;;;;37.51;24.97;99700.94;1644933;85;21019;-61
2021/07/23 08:07:10;;;;;;;2.90;1.70;;;;;;;37.74;23.80;99700.11;1634448;85;21417;-61
2021/07/23 08:09:58;;;;;;;3.10;1.75;;;;;;;37.87;23.29;99700.55;1619873;87;22230;-60
2021/07/23 08:12:20;;;;;;;2.92;1.55;;;;;;;38.05;23.13;99701.26;1620358;87;21129;-61
2021/07/23 08:14:47;;;;;;;4.47;1.92;;;;;;;37.82;22.34;99702.28;1617839;87;21088;-59
2021/07/23 08:17:13;;;;;;;3.98;1.90;;;;;;;37.37;22.73;99712.45;1623777;86;21093;-60
2021/07/23 08:19:40;;;;;;;5.08;2.10;;;;;;;37.30;23.80;99708.33;1615347;86;21370;-61
2021/07/23 08:22:06;;;;;;;2.55;1.55;;;;;;;37.62;23.35;99704.52;1638031;87;21145;-61
2021/07/23 08:24:34;;;;;;;2.77;1.70;;;;;;;37.71;22.88;99710.38;1628099;85;21040;-61
2021/07/23 08:27:01;;;;;;;3.40;1.70;;;;;;;37.67;22.40;99709.58;1632378;87;21175;-60
2021/07/23 08:29:27;;;;;;;3.47;1.80;;;;;;;37.69;22.83;99709.97;1637797;85;21040;-62
2021/07/23 08:31:54;;;;;;;3.58;1.65;;;;;;;37.96;23.38;99699.67;1640941;87;21078;-61
2021/07/23 08:34:21;;;;;;;2.67;1.67;;;;;;;38.54;23.18;99705.34;1637517;85;21016;-59
2021/07/23 08:36:47;;;;;;;2.77;1.75;;;;;;;38.49;21.71;99707.83;1636494;87;21208;-60
2021/07/23 08:39:14;;;;;;;2.30;1.60;;;;;;;37.23;21.78;99718.55;1636973;85;21315;-61
2021/07/23 08:41:40;;;;;;;5.60;1.70;;;;;;;36.38;23.15;99718.45;1636820;87;21080;-63
2021/07/23 08:44:07;;;;;;;3.33;2.05;;;;;;;36.12;23.98;99723.95;1640972;87;20958;-62
2021/07/23 08:46:34;;;;;;;3.33;2.15;;;;;;;35.48;25.05;99716.41;1641202;86;21154;-61
2021/07/23 08:49:01;;;;;;;5.50;2.55;;;;;;;35.25;24.99;99714.30;1642304;85;21657;-59
2021/07/23 08:51:27;;;;;;;5.12;2.20;;;;;;;35.20;25.43;99713.27;1593924;88;21169;-61
2021/07/23 08:53:53;;;;;;;4.25;2.42;;;;;;;35.31;25.54;99712.86;1637573;85;21097;-61
2021/07/23 08:56:20;;;;;;;5.22;2.30;;;;;;;35.51;24.70;99717.07;1637598;85;21640;-60
2021/07/23 08:58:47;;;;;;;7.03;2.60;;;;;;;35.53;25.06;99717.47;1642037;87;20966;-60
2021/07/23 09:01:13;;;;;;;4.05;2.42;;;;;;;35.30;25.11;99716.70;1642787;85;21709;-61
2021/07/23 09:03:40;;;;;;;2.92;1.82;;;;;;;35.13;25.20;99709.86;1639591;85;21575;-60
2021/07/23 09:06:16;;;;;;;3.75;2.65;;;;;;;35.38;24.86;99710.23;1646002;86;21088;-60
2021/07/23 09:09:00;;;;;;;4.25;2.72;;;;;;;35.61;25.07;99713.52;1641199;85;21150;-60
2021/07/23 09:11:30;;;;;;;4.12;3.15;;;;;;;35.66;24.06;99711.30;1638157;85;21901;-59
2021/07/23 09:14:12;;;;;;;6.37;4.20;;;;;;;35.12;23.15;99712.36;1643001;86;21581;-59
2021/07/23 09:16:39;;;;;;;5.40;2.27;;;;;;;34.66;24.24;99716.91;1631766;86;21615;-60
2021/07/23 09:19:10;;;;;;;5.67;2.67;;;;;;;34.53;23.46;99710.30;1633144;86;21070;-59
2021/07/23 09:21:39;;;;;;;4.28;2.30;;;;;;;34.46;24.21;99711.48;1667701;84;20997;-59
2021/07/23 09:24:06;;;;;;;3.92;1.90;;;;;;;34.74;24.52;99719.41;1631315;86;20984;-59
2021/07/23 09:26:44;;;;;;;5.05;2.80;;;;;;;35.13;23.64;99705.80;1648337;86;21024;-59
2021/07/23 09:29:11;;;;;;;3.92;2.15;;;;;;;35.45;23.64;99700.87;1648672;85;21137;-59
2021/07/23 09:31:37;;;;;;;3.55;1.80;;;;;;;35.37;23.90;99706.55;1650021;85;21068;-59
2021/07/23 09:34:04;;;;;;;3.80;2.17;;;;;;;34.97;23.47;99711.87;1645412;85;21694;-59
2021/07/23 09:36:32;;;;;;;6.67;2.30;;;;;;;34.69;24.53;99702.66;1648098;85;22028;-60
2021/07/23 09:39:05;;;;;;;3.02;1.90;;;;;;;34.44;25.54;99701.59;1650029;85;21018;-60
2021/07/23 09:41:33;;;;;;;5.70;1.87;;;;;;;34.22;25.51;99703.09;1654683;84;21195;-59
2021/07/23 09:44:08;;;;;;;4.47;1.85;;;;;;;34.21;25.40;99699.37;1656598;85;21090;-59
2021/07/23 09:46:37;;;;;;;2.22;1.70;;;;;;;34.43;25.89;99705.42;1659158;84;21460;-59
2021/07/23 09:49:22;;;;;;;8.88;2.80;;;;;;;34.99;24.78;99704.16;1622160;86;21542;-59
2021/07/23 09:51:49;;;;;;;3.75;2.17;;;;;;;35.08;25.07;99697.41;1649644;86;21073;-59
2021/07/23 09:54:18;;;;;;;2.85;1.80;;;;;;;34.65;23.87;99705.87;1653745;86;21122;-61
2021/07/23 09:56:49;;;;;;;2.22;1.80;;;;;;;34.03;24.75;99702.50;1653150;85;21405;-60
2021/07/23 09:59:38;;;;;;;3.17;1.95;;;;;;;33.68;24.69;99704.38;1654645;86;21539;-59
2021/07/23 10:02:06;;;;;;;3.05;1.67;;;;;;;33.37;25.50;99703.26;1647337;86;21043;-61
2021/07/23 10:04:35;;;;;;;4.15;2.30;;;;;;;33.51;25.44;99700.15;1647456;86;21099;-60
2021/07/23 10:07:12;;;;;;;2.67;1.85;;;;;;;33.73;26.39;99700.08;1640771;85;21928;-60
2021/07/23 10:09:39;;;;;;;2.12;1.70;;;;;;;33.91;25.35;99701.25;1646294;85;21497;-62
2021/07/23 10:12:09;;;;;;;4.72;2.08;;;;;;;34.02;25.76;99697.43;1622619;86;20939;-60
2021/07/23 10:14:39;;;;;;;3.25;1.80;;;;;;;33.91;25.43;99691.79;1648175;86;27164;-60
2021/07/23 10:17:08;;;;;;;3.40;2.35;;;;;;;34.16;25.70;99686.13;1643582;86;20959;-59
2021/07/23 10:19:36;;;;;;;3.77;2.08;;;;;;;34.58;25.54;99693.76;1642115;86;22113;-61
2021/07/23 10:22:03;;;;;;;2.37;1.75;;;;;;;34.76;24.96;99696.02;1642518;86;21031;-59
2021/07/23 10:24:36;;;;;;;2.05;1.50;;;;;;;34.70;25.54;99700.16;1642920;86;21733;-60
2021/07/23 10:27:05;;;;;;;2.55;1.80;;;;;;;34.74;24.52;99698.29;1644070;86;21046;-59
2021/07/23 10:29:48;;;;;;;3.15;1.70;;;;;;;35.32;24.20;99688.68;1641892;85;22072;-59
2021/07/23 10:32:35;;;;;;;2.67;1.90;;;;;;;35.57;24.30;99700.72;1647408;85;21479;-61
2021/07/23 10:35:19;;;;;;;3.62;1.72;;;;;;;35.77;23.38;99696.53;1643610;86;21486;-59
2021/07/23 10:37:51;;;;;;;3.37;1.92;;;;;;;35.77;23.67;99704.09;1638062;85;21120;-60
2021/07/23 10:40:20;;;;;;;3.65;1.60;;;;;;;35.49;23.61;99699.56;1643832;86;21083;-58
2021/07/23 10:42:47;;;;;;;3.27;1.90;;;;;;;35.24;23.72;99690.49;1644623;86;21375;-60
2021/07/23 10:45:20;;;;;;;2.77;1.82;;;;;;;35.04;24.50;99689.79;1646905;86;21178;-59
2021/07/23 10:47:50;;;;;;;3.08;1.80;;;;;;;34.93;25.06;99690.70;1630654;86;21114;-60
2021/07/23 10:50:31;;;;;;;5.35;1.77;;;;;;;35.02;25.08;99688.00;1628883;86;21100;-60
2021/07/23 10:53:00;;;;;;;3.27;1.80;;;;;;;34.93;24.30;99700.17;1634923;86;21051;-58
2021/07/23 10:55:29;;;;;;;4.92;1.82;;;;;;;34.58;24.72;99697.81;1628563;86;21092;-60
2021/07/23 10:58:11;;;;;;;3.70;1.90;;;;;;;34.16;24.90;99693.67;1645915;86;21102;-60
2021/07/23 11:00:51;;;;;;;9.38;2.52;;;;;;;33.80;25.48;99692.12;1641888;86;21670;-62
2021/07/23 11:03:42;;;;;;;5.10;1.52;;;;;;;33.64;25.64;99687.54;1647174;86;21095;-62
2021/07/23 11:06:19;;;;;;;3.12;1.50;;;;;;;33.80;25.80;99692.12;1647734;86;21005;-58
2021/07/23 11:08:51;;;;;;;4.15;1.70;;;;;;;33.94;25.93;99684.30;1641157;86;21132;-62
2021/07/23 11:11:23;;;;;;;4.17;1.77;;;;;;;34.48;24.94;99680.80;1646145;85;21998;-60
2021/07/23 11:13:49;;;;;;;4.33;1.92;;;;;;;34.94;24.90;99675.45;1642405;86;21496;-60
2021/07/23 11:16:18;;;;;;;5.67;1.50;;;;;;;35.10;24.44;99670.72;1647077;86;21029;-59
2021/07/23 11:18:57;;;;;;;5.50;2.00;;;;;;;34.28;25.61;99673.81;1647772;86;21299;-61
2021/07/23 11:21:36;;;;;;;2.98;2.08;;;;;;;34.03;26.06;99672.75;1647334;86;21163;-60
2021/07/23 11:24:14;;;;;;;3.47;1.65;;;;;;;33.83;26.46;99678.69;1643527;86;21137;-60
2021/07/23 11:26:50;;;;;;;4.30;1.98;;;;;;;33.90;26.25;99676.68;1646754;86;21057;-61
2021/07/23 11:29:35;;;;;;;2.65;1.52;;;;;;;34.05;25.24;99672.39;1641340;85;21080;-61
2021/07/23 11:32:11;;;;;;;2.95;1.55;;;;;;;34.23;25.26;99668.70;1643095;86;21500;-62
2021/07/23 11:34:39;;;;;;;2.50;1.70;;;;;;;34.21;25.16;99663.66;1647114;86;21078;-63
2021/07/23 11:37:21;;;;;;;3.20;1.62;;;;;;;34.35;24.86;99661.78;1646250;85;21347;-63
2021/07/23 11:39:57;;;;;;;3.05;1.60;;;;;;;34.23;24.82;99657.87;1646906;86;21037;-62